createdAt,value
2023-04-07T00:00:26.854Z,16.70
2023-04-07T00:02:54.057Z,15.90
2023-04-07T00:05:20.977Z,14.87
2023-04-07T00:07:55.891Z,15.33
2023-04-07T00:10:25.041Z,15.67
2023-04-07T00:12:52.335Z,16.30
2023-04-07T00:15:19.326Z,19.03
2023-04-07T00:17:46.095Z,15.07
2023-04-07T00:20:13.024Z,18.93
2023-04-07T00:22:39.798Z,17.07
2023-04-07T00:25:07.244Z,15.83
2023-04-07T00:27:34.043Z,16.57
2023-04-07T00:30:00.861Z,18.00
2023-04-07T00:32:27.650Z,17.00
2023-04-07T00:34:54.389Z,19.53
2023-04-07T00:37:21.173Z,16.80
2023-04-07T00:39:48.096Z,16.30
2023-04-07T00:42:14.832Z,15.70
2023-04-07T00:44:41.618Z,17.00
2023-04-07T00:47:08.565Z,19.30
2023-04-07T00:49:39.880Z,18.37
2023-04-07T00:52:07.758Z,17.33
2023-04-07T00:54:34.526Z,15.70
2023-04-07T00:57:01.748Z,16.50
2023-04-07T00:59:31.235Z,17.70
2023-04-07T01:02:06.988Z,17.77
2023-04-07T01:04:42.072Z,18.33
2023-04-07T01:07:18.686Z,21.77
2023-04-07T01:09:57.703Z,19.40
2023-04-07T01:12:52.980Z,19.77
2023-04-07T01:15:22.136Z,18.23
2023-04-07T01:17:56.075Z,19.63
2023-04-07T01:20:25.749Z,18.10
2023-04-07T01:22:57.655Z,19.17
2023-04-07T01:25:30.444Z,19.40
2023-04-07T01:28:06.263Z,19.90
2023-04-07T01:30:38.023Z,19.40
2023-04-07T01:33:06.542Z,18.93
2023-04-07T01:35:35.952Z,20.17
2023-04-07T01:38:03.895Z,19.20
2023-04-07T01:40:31.411Z,20.47
2023-04-07T01:42:58.632Z,18.23
2023-04-07T01:45:27.512Z,20.47
2023-04-07T01:47:55.300Z,18.53
2023-04-07T01:50:22.520Z,21.13
2023-04-07T01:52:49.733Z,18.90
2023-04-07T01:55:16.433Z,22.00
2023-04-07T01:57:43.199Z,19.47
2023-04-07T02:00:10.390Z,20.20
2023-04-07T02:02:44.332Z,25.33
2023-04-07T02:05:14.999Z,19.77
2023-04-07T02:07:52.204Z,21.97
2023-04-07T02:10:23.764Z,21.80
2023-04-07T02:12:51.769Z,23.60
2023-04-07T02:15:19.288Z,22.07
2023-04-07T02:17:53.422Z,21.40
2023-04-07T02:20:21.954Z,21.60
2023-04-07T02:22:48.988Z,24.20
2023-04-07T02:25:29.877Z,22.93
2023-04-07T02:27:58.068Z,27.10
2023-04-07T02:30:25.454Z,28.03
2023-04-07T02:32:53.022Z,26.37
2023-04-07T02:35:20.099Z,27.17
2023-04-07T02:37:47.423Z,28.67
2023-04-07T02:40:14.365Z,33.10
2023-04-07T02:42:41.294Z,28.00
2023-04-07T02:45:09.475Z,30.90
2023-04-07T02:47:37.145Z,33.53
2023-04-07T02:50:04.603Z,39.47
2023-04-07T02:52:31.430Z,34.77
2023-04-07T02:54:58.125Z,33.50
2023-04-07T02:57:24.919Z,34.67
2023-04-07T02:59:51.668Z,35.97
2023-04-07T03:02:18.568Z,35.43
2023-04-07T03:04:45.362Z,38.40
2023-04-07T03:07:12.079Z,41.30
2023-04-07T03:09:38.801Z,42.00
2023-04-07T03:12:05.849Z,39.97
2023-04-07T03:14:32.663Z,40.53
2023-04-07T03:16:59.369Z,41.73
2023-04-07T03:19:26.308Z,47.50
2023-04-07T03:21:53.006Z,43.90
2023-04-07T03:24:19.860Z,42.90
2023-04-07T03:26:47.216Z,38.63
2023-04-07T03:29:14.020Z,47.90
2023-04-07T03:31:40.755Z,41.13
2023-04-07T03:34:07.528Z,42.60
2023-04-07T03:36:34.251Z,45.07
2023-04-07T03:39:01.130Z,44.87
2023-04-07T03:41:27.902Z,46.13
2023-04-07T03:43:54.729Z,45.00
2023-04-07T03:46:21.695Z,44.33
2023-04-07T03:48:48.487Z,41.77
2023-04-07T03:51:16.205Z,43.37
2023-04-07T03:53:43.022Z,43.47
2023-04-07T03:56:09.990Z,42.03
2023-04-07T03:58:36.877Z,37.20
2023-04-07T04:01:03.811Z,41.30
2023-04-07T04:03:30.808Z,41.90
2023-04-07T04:05:57.570Z,43.63
2023-04-07T04:08:24.282Z,42.97
2023-04-07T04:10:51.314Z,43.00
2023-04-07T04:13:18.087Z,42.87
2023-04-07T04:15:44.799Z,41.20
2023-04-07T04:18:11.662Z,41.47
2023-04-07T04:20:38.494Z,41.87
2023-04-07T04:23:05.165Z,45.30
2023-04-07T04:25:31.918Z,50.93
2023-04-07T04:27:58.709Z,38.20
2023-04-07T04:30:25.466Z,41.33
2023-04-07T04:32:52.278Z,47.93
2023-04-07T04:35:19.188Z,39.87
2023-04-07T04:37:45.918Z,45.40
2023-04-07T04:40:13.237Z,49.20
2023-04-07T04:42:40.257Z,41.50
2023-04-07T04:45:07.769Z,41.43
2023-04-07T04:47:34.606Z,40.87
2023-04-07T04:50:01.506Z,44.07
2023-04-07T04:52:28.862Z,45.47
2023-04-07T04:54:55.803Z,42.63
2023-04-07T04:57:22.711Z,36.93
2023-04-07T04:59:49.526Z,47.80
2023-04-07T05:02:16.386Z,41.07
2023-04-07T05:04:43.446Z,36.03
2023-04-07T05:07:10.452Z,39.30
2023-04-07T05:09:37.159Z,41.00
2023-04-07T05:12:04.138Z,40.37
2023-04-07T05:14:30.889Z,43.57
2023-04-07T05:16:57.677Z,34.23
2023-04-07T05:19:24.369Z,36.50
2023-04-07T05:21:51.072Z,37.63
2023-04-07T05:24:17.747Z,27.97
2023-04-07T05:26:44.466Z,32.80
2023-04-07T05:29:11.287Z,32.93
2023-04-07T05:31:38.163Z,28.20
2023-04-07T05:34:04.922Z,33.53
2023-04-07T05:36:31.854Z,38.70
2023-04-07T05:38:58.640Z,25.93
2023-04-07T05:41:25.305Z,37.80
2023-04-07T05:43:52.210Z,33.90
2023-04-07T05:46:19.305Z,30.73
2023-04-07T05:48:46.413Z,20.67
2023-04-07T05:51:13.218Z,21.80
2023-04-07T05:53:40.017Z,27.57
2023-04-07T05:56:07.224Z,22.77
2023-04-07T05:58:33.936Z,18.70
2023-04-07T06:01:00.841Z,19.90
2023-04-07T06:03:27.669Z,19.87
2023-04-07T06:05:54.523Z,27.77
2023-04-07T06:08:21.562Z,22.47
2023-04-07T06:10:48.446Z,18.20
2023-04-07T06:13:15.123Z,18.60
2023-04-07T06:15:41.884Z,19.90
2023-04-07T06:18:08.607Z,19.40
2023-04-07T06:20:35.904Z,16.47
2023-04-07T06:23:02.669Z,22.37
2023-04-07T06:25:29.345Z,18.57
2023-04-07T06:27:56.264Z,18.37
2023-04-07T06:30:23.006Z,13.23
2023-04-07T06:32:49.987Z,16.73
2023-04-07T06:35:16.779Z,14.60
2023-04-07T06:37:43.526Z,10.97
2023-04-07T06:40:10.539Z,16.90
2023-04-07T06:42:37.245Z,13.30
2023-04-07T06:45:04.434Z,12.37
2023-04-07T06:47:31.306Z,14.40
2023-04-07T06:49:58.062Z,13.17
2023-04-07T06:52:24.773Z,10.93
2023-04-07T06:54:51.698Z,11.60
2023-04-07T06:57:18.437Z,10.77
2023-04-07T06:59:45.521Z,10.80
2023-04-07T07:02:12.471Z,11.00
2023-04-07T07:04:39.458Z,9.00
2023-04-07T07:07:06.399Z,9.13
2023-04-07T07:09:33.164Z,9.00
2023-04-07T07:12:04.020Z,11.17
2023-04-07T07:14:31.196Z,8.57
2023-04-07T07:16:58.082Z,9.60
2023-04-07T07:19:24.813Z,10.60
2023-04-07T07:21:51.490Z,7.30
2023-04-07T07:24:18.240Z,10.30
2023-04-07T07:26:46.017Z,9.80
2023-04-07T07:29:12.881Z,8.10
2023-04-07T07:31:39.624Z,8.53
2023-04-07T07:34:06.733Z,7.53
2023-04-07T07:36:33.528Z,9.10
2023-04-07T07:39:00.538Z,8.30
2023-04-07T07:41:27.471Z,9.57
2023-04-07T07:43:54.352Z,7.20
2023-04-07T07:46:21.178Z,9.10
2023-04-07T07:48:47.970Z,9.30
2023-04-07T07:51:14.691Z,8.40
2023-04-07T07:53:41.584Z,7.40
2023-04-07T07:56:08.252Z,8.03
2023-04-07T07:58:35.022Z,8.80
2023-04-07T08:01:02.056Z,8.10
2023-04-07T08:03:28.910Z,8.63
2023-04-07T08:05:55.957Z,9.37
2023-04-07T08:08:22.661Z,9.03
2023-04-07T08:10:49.513Z,9.70
2023-04-07T08:13:16.383Z,9.47
2023-04-07T08:15:43.369Z,10.33
2023-04-07T08:18:11.376Z,9.67
2023-04-07T08:20:38.115Z,9.47
2023-04-07T08:23:05.127Z,11.10
2023-04-07T08:25:32.115Z,10.33
2023-04-07T08:27:58.918Z,10.70
2023-04-07T08:30:26.838Z,9.33
2023-04-07T08:32:53.713Z,9.97
2023-04-07T08:35:20.623Z,9.13
2023-04-07T08:37:47.477Z,8.00
2023-04-07T08:40:14.334Z,9.43
2023-04-07T08:42:43.799Z,8.43
2023-04-07T08:45:10.895Z,8.47
2023-04-07T08:47:39.988Z,11.60
2023-04-07T08:50:09.422Z,11.40
2023-04-07T08:52:50.907Z,10.77
2023-04-07T08:55:17.828Z,9.57
2023-04-07T08:57:45.678Z,8.20
2023-04-07T09:00:13.716Z,9.73
2023-04-07T09:02:44.443Z,9.47
2023-04-07T09:05:12.386Z,8.90
2023-04-07T09:07:45.824Z,14.10
2023-04-07T09:10:12.748Z,10.27
2023-04-07T09:12:39.962Z,9.27
2023-04-07T09:15:07.901Z,10.53
2023-04-07T09:17:34.827Z,9.37
2023-04-07T09:20:02.183Z,9.27
2023-04-07T09:22:56.485Z,8.73
2023-04-07T09:25:26.447Z,11.50
2023-04-07T09:28:01.996Z,11.00
2023-04-07T09:30:30.357Z,9.67
2023-04-07T09:32:58.110Z,8.63
2023-04-07T09:35:25.145Z,9.43
2023-04-07T09:38:09.392Z,11.10
2023-04-07T09:40:37.628Z,11.47
2023-04-07T09:43:05.961Z,8.70
2023-04-07T09:45:36.144Z,8.40
2023-04-07T09:48:08.801Z,7.37
2023-04-07T09:50:41.268Z,7.67
2023-04-07T09:53:08.547Z,10.70
2023-04-07T09:55:36.821Z,7.80
2023-04-07T09:58:06.320Z,7.90
2023-04-07T10:00:33.373Z,7.83
2023-04-07T10:03:01.866Z,8.60
2023-04-07T10:05:29.224Z,10.50
2023-04-07T10:07:56.447Z,10.83
2023-04-07T10:10:23.570Z,11.70
2023-04-07T10:12:53.063Z,8.13
2023-04-07T10:15:20.512Z,9.43
2023-04-07T10:17:51.731Z,9.10
2023-04-07T10:20:21.160Z,13.10
2023-04-07T10:22:53.887Z,12.03
2023-04-07T10:25:24.657Z,11.67
2023-04-07T10:27:56.345Z,10.83
2023-04-07T10:30:28.907Z,9.90
2023-04-07T10:32:56.057Z,15.97
2023-04-07T10:35:23.738Z,12.00
2023-04-07T10:38:10.750Z,12.93
2023-04-07T10:40:38.258Z,16.27
2023-04-07T10:43:09.719Z,16.80
2023-04-07T10:45:48.832Z,14.33
2023-04-07T10:48:19.582Z,16.80
2023-04-07T10:51:04.852Z,15.90
2023-04-07T10:53:32.160Z,14.57
2023-04-07T10:55:59.323Z,17.50
2023-04-07T10:58:29.060Z,15.07
2023-04-07T11:01:08.428Z,18.10
2023-04-07T11:03:36.756Z,15.90
2023-04-07T11:06:12.671Z,16.90
2023-04-07T11:08:45.579Z,11.77
2023-04-07T11:11:15.889Z,15.40
2023-04-07T11:13:44.180Z,13.63
2023-04-07T11:16:11.410Z,15.43
2023-04-07T11:18:39.147Z,17.37
2023-04-07T11:21:06.885Z,14.17
2023-04-07T11:23:45.520Z,13.20
2023-04-07T11:26:14.129Z,13.43
2023-04-07T11:28:48.021Z,18.57
2023-04-07T11:31:31.926Z,18.23
2023-04-07T11:34:00.753Z,15.07
2023-04-07T11:36:28.948Z,15.20
2023-04-07T11:38:57.670Z,14.03
2023-04-07T11:41:26.413Z,13.43
2023-04-07T11:44:12.641Z,15.03
2023-04-07T11:46:59.795Z,15.13
2023-04-07T11:49:28.754Z,11.87
2023-04-07T11:52:04.188Z,13.23
2023-04-07T11:54:43.991Z,12.80
2023-04-07T11:57:12.864Z,11.80
2023-04-07T11:59:41.318Z,13.17
2023-04-07T12:02:08.365Z,16.73
2023-04-07T12:04:37.906Z,19.20
2023-04-07T12:07:11.780Z,14.77
2023-04-07T12:09:38.710Z,11.63
2023-04-07T12:12:07.781Z,12.00
2023-04-07T12:14:35.617Z,9.93
2023-04-07T12:17:03.751Z,12.80
2023-04-07T12:19:35.579Z,10.53
2023-04-07T12:22:02.420Z,9.93
2023-04-07T12:24:29.304Z,12.47
2023-04-07T12:26:56.611Z,12.80
2023-04-07T12:29:23.468Z,11.00
2023-04-07T12:31:51.369Z,10.90
2023-04-07T12:34:18.746Z,13.97
2023-04-07T12:36:45.661Z,9.73
2023-04-07T12:39:12.700Z,13.93
2023-04-07T12:41:39.903Z,9.47
2023-04-07T12:44:06.868Z,7.97
2023-04-07T12:46:34.091Z,11.43
2023-04-07T12:49:01.158Z,7.50
2023-04-07T12:51:28.508Z,7.50
2023-04-07T12:53:55.268Z,8.10
2023-04-07T12:56:22.515Z,8.40
2023-04-07T12:58:49.343Z,10.37
2023-04-07T13:01:16.742Z,9.03
2023-04-07T13:03:44.063Z,11.23
2023-04-07T13:06:11.750Z,11.67
2023-04-07T13:08:39.526Z,12.87
2023-04-07T13:11:06.920Z,11.40
2023-04-07T13:13:33.746Z,18.07
2023-04-07T13:16:01.005Z,14.60
2023-04-07T13:18:27.667Z,16.17
2023-04-07T13:21:10.713Z,15.73
2023-04-07T13:23:54.072Z,15.30
2023-04-07T13:26:20.936Z,12.83
2023-04-07T13:28:47.918Z,14.17
2023-04-07T13:31:16.198Z,14.63
2023-04-07T13:33:43.354Z,13.50
2023-04-07T13:36:10.335Z,15.70
2023-04-07T13:38:37.140Z,11.90
2023-04-07T13:41:04.083Z,12.10
2023-04-07T13:43:30.789Z,14.77
2023-04-07T13:45:57.634Z,10.70
2023-04-07T13:48:24.415Z,9.30
2023-04-07T13:50:51.162Z,17.23
2023-04-07T13:53:19.224Z,8.57
2023-04-07T13:55:46.315Z,12.53
2023-04-07T13:58:13.425Z,12.10
2023-04-07T14:00:40.304Z,11.47
2023-04-07T14:03:08.099Z,8.73
2023-04-07T14:05:35.969Z,10.60
2023-04-07T14:08:02.892Z,8.60
2023-04-07T14:10:29.761Z,8.57
2023-04-07T14:12:57.137Z,8.60
2023-04-07T14:15:23.873Z,10.00
2023-04-07T14:17:50.737Z,10.13
2023-04-07T14:20:17.595Z,9.87
2023-04-07T14:22:44.604Z,8.30
2023-04-07T14:25:11.821Z,7.43
2023-04-07T14:27:38.532Z,8.73
2023-04-07T14:30:05.927Z,8.07
2023-04-07T14:32:34.342Z,9.17
2023-04-07T14:35:01.388Z,8.27
2023-04-07T14:37:28.919Z,11.00
2023-04-07T14:42:26.069Z,11.00
2023-04-07T14:44:53.164Z,12.33
2023-04-07T14:47:20.166Z,12.97
2023-04-07T14:49:47.180Z,12.90
2023-04-07T14:52:14.129Z,12.37
2023-04-07T14:54:40.961Z,11.63
2023-04-07T14:57:07.703Z,10.60
2023-04-07T14:59:34.490Z,9.40
2023-04-07T15:02:01.257Z,12.13
2023-04-07T15:04:28.101Z,10.23
2023-04-07T15:06:54.981Z,10.87
2023-04-07T15:09:21.881Z,11.43
2023-04-07T15:11:48.641Z,12.33
2023-04-07T15:14:15.401Z,9.60
2023-04-07T15:16:42.281Z,10.83
2023-04-07T15:19:08.987Z,10.37
2023-04-07T15:21:35.692Z,9.57
2023-04-07T15:24:02.499Z,11.90
2023-04-07T15:26:29.320Z,9.43
2023-04-07T15:28:56.039Z,9.00
2023-04-07T15:31:23.481Z,12.90
2023-04-07T15:33:51.012Z,10.03
2023-04-07T15:36:17.725Z,13.60
2023-04-07T15:38:44.514Z,11.00
2023-04-07T15:41:16.011Z,10.23
2023-04-07T15:43:42.804Z,10.33
2023-04-07T15:46:09.548Z,11.60
2023-04-07T15:48:36.436Z,11.13
2023-04-07T15:51:03.246Z,11.03
2023-04-07T15:53:30.521Z,19.87
2023-04-07T15:55:57.350Z,9.83
2023-04-07T15:58:24.224Z,12.70
2023-04-07T16:00:51.144Z,10.63
2023-04-07T16:03:18.098Z,12.07
2023-04-07T16:05:44.897Z,9.07
2023-04-07T16:08:13.694Z,10.30
2023-04-07T16:10:40.942Z,11.43
2023-04-07T16:13:07.612Z,13.47
2023-04-07T16:15:40.707Z,11.50
2023-04-07T16:18:10.795Z,8.73
2023-04-07T16:20:37.682Z,9.33
2023-04-07T16:23:04.458Z,10.27
2023-04-07T16:25:31.313Z,12.40
2023-04-07T16:27:58.153Z,13.00
2023-04-07T16:30:25.357Z,8.10
2023-04-07T16:32:52.362Z,7.13
2023-04-07T16:35:19.329Z,12.27
2023-04-07T16:37:46.588Z,9.80
2023-04-07T16:40:13.782Z,11.17
2023-04-07T16:42:40.998Z,11.43
2023-04-07T16:45:08.516Z,8.07
2023-04-07T16:47:35.622Z,7.87
2023-04-07T16:50:04.211Z,9.70
2023-04-07T16:52:31.340Z,9.63
2023-04-07T16:54:58.141Z,9.20
2023-04-07T16:57:24.988Z,8.33
2023-04-07T16:59:51.711Z,12.23
2023-04-07T17:02:18.783Z,10.30
2023-04-07T17:04:45.886Z,12.60
2023-04-07T17:07:12.717Z,11.30
2023-04-07T17:09:39.857Z,26.17
2023-04-07T17:12:07.013Z,19.33
2023-04-07T17:14:34.113Z,9.73
2023-04-07T17:17:01.400Z,15.20
2023-04-07T17:19:28.332Z,14.40
2023-04-07T17:21:55.638Z,13.60
2023-04-07T17:24:22.720Z,10.90
2023-04-07T17:26:49.654Z,11.03
2023-04-07T17:29:17.120Z,17.50
2023-04-07T17:31:44.190Z,19.50
2023-04-07T17:34:11.854Z,11.53
2023-04-07T17:36:38.908Z,8.93
2023-04-07T17:39:06.086Z,15.77
2023-04-07T17:41:34.704Z,14.10
2023-04-07T17:44:01.985Z,12.10
2023-04-07T17:46:28.916Z,15.40
2023-04-07T17:48:58.867Z,8.63
2023-04-07T17:51:26.381Z,8.33
2023-04-07T17:53:54.314Z,8.83
2023-04-07T17:56:21.550Z,12.07
2023-04-07T17:58:48.785Z,8.67
2023-04-07T18:01:16.922Z,12.73
2023-04-07T18:03:44.114Z,11.43
2023-04-07T18:06:16.894Z,12.03
2023-04-07T18:08:46.543Z,8.93
2023-04-07T18:11:13.787Z,11.00
2023-04-07T18:13:40.603Z,11.10
2023-04-07T18:16:11.930Z,12.53
2023-04-07T18:18:38.945Z,14.70
2023-04-07T18:21:08.464Z,9.70
2023-04-07T18:23:35.257Z,12.10
2023-04-07T18:26:06.686Z,12.97
2023-04-07T18:28:34.313Z,13.10
2023-04-07T18:31:07.606Z,13.07
2023-04-07T18:33:35.724Z,9.83
2023-04-07T18:36:07.281Z,15.00
2023-04-07T18:38:35.797Z,12.07
2023-04-07T18:41:02.721Z,13.87
2023-04-07T18:43:30.156Z,16.27
2023-04-07T18:45:56.980Z,14.63
2023-04-07T18:48:23.886Z,14.40
2023-04-07T18:50:52.650Z,12.33
2023-04-07T18:53:20.762Z,13.60
2023-04-07T18:55:49.378Z,17.80
2023-04-07T18:58:16.320Z,13.03
2023-04-07T19:00:43.971Z,11.50
2023-04-07T19:03:11.338Z,21.90
2023-04-07T19:05:39.680Z,13.63
2023-04-07T19:08:06.712Z,15.33
2023-04-07T19:10:33.995Z,12.33
2023-04-07T19:13:01.664Z,14.47
2023-04-07T19:15:34.130Z,16.83
2023-04-07T19:18:03.956Z,20.43
2023-04-07T19:20:31.183Z,14.00
2023-04-07T19:22:58.183Z,12.90
2023-04-07T19:25:25.306Z,12.60
2023-04-07T19:27:52.259Z,13.20
2023-04-07T19:30:19.282Z,16.77
2023-04-07T19:32:46.173Z,23.27
2023-04-07T19:35:13.939Z,14.97
2023-04-07T19:37:41.163Z,15.63
2023-04-07T19:40:08.774Z,13.47
2023-04-07T19:42:36.463Z,17.23
2023-04-07T19:45:07.205Z,20.43
2023-04-07T19:47:37.175Z,13.73
2023-04-07T19:50:05.212Z,19.43
2023-04-07T19:52:33.307Z,16.37
2023-04-07T19:55:01.469Z,18.37
2023-04-07T19:57:31.128Z,20.77
2023-04-07T19:59:58.401Z,21.10
2023-04-07T20:02:25.484Z,17.00
2023-04-07T20:04:53.625Z,22.10
2023-04-07T20:07:21.033Z,18.63
2023-04-07T20:09:47.840Z,18.27
2023-04-07T20:12:14.882Z,18.53
2023-04-07T20:14:41.679Z,14.10
2023-04-07T20:17:08.680Z,16.70
2023-04-07T20:19:36.515Z,20.23
2023-04-07T20:22:04.549Z,20.80
2023-04-07T20:24:31.539Z,19.40
2023-04-07T20:26:58.355Z,13.90
2023-04-07T20:29:25.684Z,20.37
2023-04-07T20:31:52.427Z,21.17
2023-04-07T20:34:19.172Z,19.33
2023-04-07T20:36:46.366Z,21.43
2023-04-07T20:39:13.181Z,25.53
2023-04-07T20:41:42.801Z,19.33
2023-04-07T20:44:09.500Z,14.97
2023-04-07T20:46:36.645Z,25.93
2023-04-07T20:49:05.289Z,22.90
2023-04-07T20:51:32.374Z,18.30
2023-04-07T20:53:59.018Z,19.87
2023-04-07T20:56:25.684Z,21.33
2023-04-07T20:58:52.523Z,15.70
2023-04-07T21:01:19.324Z,16.67
2023-04-07T21:03:46.133Z,19.70
2023-04-07T21:06:13.026Z,17.90
2023-04-07T21:08:39.791Z,16.47
2023-04-07T21:11:06.458Z,18.83
2023-04-07T21:13:33.264Z,25.70
2023-04-07T21:16:01.400Z,21.30
2023-04-07T21:18:28.270Z,19.53
2023-04-07T21:20:57.684Z,21.03
2023-04-07T21:23:24.592Z,18.80
2023-04-07T21:25:51.365Z,25.93
2023-04-07T21:28:18.099Z,17.77
2023-04-07T21:30:44.839Z,22.13
2023-04-07T21:33:13.563Z,21.90
2023-04-07T21:35:40.520Z,22.70
2023-04-07T21:38:07.266Z,19.30
2023-04-07T21:40:33.983Z,21.10
2023-04-07T21:43:00.651Z,18.83
2023-04-07T21:45:29.545Z,18.43
2023-04-07T21:47:56.720Z,18.47
2023-04-07T21:50:24.076Z,20.70
2023-04-07T21:52:51.765Z,24.10
2023-04-07T21:55:21.564Z,30.77
2023-04-07T21:57:50.215Z,18.27
2023-04-07T22:00:17.129Z,23.17
2023-04-07T22:02:44.137Z,13.37
2023-04-07T22:05:11.286Z,18.20
2023-04-07T22:07:38.095Z,20.10
2023-04-07T22:10:05.582Z,27.77
2023-04-07T22:12:32.330Z,33.63
2023-04-07T22:14:59.066Z,20.13
2023-04-07T22:17:26.064Z,21.37
2023-04-07T22:19:52.876Z,23.90
2023-04-07T22:22:19.722Z,21.47
2023-04-07T22:24:46.390Z,23.70
2023-04-07T22:27:13.082Z,19.53
2023-04-07T22:29:39.790Z,19.43
2023-04-07T22:32:06.522Z,22.30
2023-04-07T22:34:33.253Z,18.90
2023-04-07T22:37:00.002Z,22.33
2023-04-07T22:39:26.733Z,24.50
2023-04-07T22:41:53.554Z,21.63
2023-04-07T22:44:20.342Z,25.33
2023-04-07T22:46:47.215Z,21.60
2023-04-07T22:49:13.898Z,24.93
2023-04-07T22:51:41.023Z,18.87
2023-04-07T22:54:07.722Z,30.13
2023-04-07T22:56:34.466Z,28.20
2023-04-07T22:59:05.530Z,32.60
2023-04-07T23:01:33.000Z,28.43
2023-04-07T23:04:00.044Z,23.80
2023-04-07T23:06:28.585Z,22.83
2023-04-07T23:08:56.520Z,26.27
2023-04-07T23:11:23.675Z,32.50
2023-04-07T23:13:51.330Z,28.53
2023-04-07T23:16:18.148Z,26.87
2023-04-07T23:18:44.974Z,22.83
2023-04-07T23:21:13.268Z,29.30
2023-04-07T23:23:40.092Z,31.27
2023-04-07T23:26:07.276Z,30.33
2023-04-07T23:28:33.934Z,26.70
2023-04-07T23:31:02.009Z,23.83
2023-04-07T23:33:31.705Z,25.00
2023-04-07T23:35:58.774Z,27.50
2023-04-07T23:38:25.965Z,23.93
2023-04-07T23:40:53.323Z,25.90
2023-04-07T23:43:20.248Z,24.23
2023-04-07T23:45:47.130Z,24.87
2023-04-07T23:48:14.747Z,27.17
2023-04-07T23:50:41.793Z,21.33
2023-04-07T23:53:08.589Z,29.43
2023-04-07T23:55:35.454Z,28.73
2023-04-07T23:58:02.313Z,27.73
